Xenia, OH

8:51 AM EST on March 02, 2015 (GMT -0500)
RMR - Xenia | Change Station
CLOSE
Current Station
Personal Weather Station
Location: Xenia, OH
Elevation: 974 ft
Nearby Weather Stations
Active Advisory: Special Statement Active Notice: Record Report, Local Storm Report

Elev 974 ft 39.68 °N, 83.90 °W | Updated 5 minutes ago

Partly Cloudy
Partly Cloudy
19.4 °F
Feels Like 14 °F
N
4.0
Wind Variable Wind from NW
Gusts 5.0 mph

Today
High -- | Low -- °F
--% Chance of Precip.
Yesterday
High -- | Low -- °F
Precip. -- in
7:07 AM 6:28 PM
Waxing Gibbous, 91% visible
Pressure 30.53 in
Visibility 10.0 miles
Clouds Overcast 20000 ft
Windchill 14 °F
Dew Point 16 °F
Humidity 85%
Rainfall 0.00 in
Snow Depth Not available.
UV 0 out of 12
Pollen 1.20 out of 12
Air Quality Not available.
Flu Activity Not available.
METAR KFFO 021258Z 29003KT 10SM OVC200 M09/M11 A3048 RMK AO2A SLP337 T10891115

More Conditions Fewer Conditions

Pressure 30.53 in
Visibility 10.0 miles
Clouds Overcast 20000 ft
Windchill 14 °F
Dew Point 16 °F
Humidity 85%
Rainfall 0.00 in
Snow Depth Not available.
UV 0 out of 12
Pollen 1.20 out of 12
Air Quality Not available.
Flu Activity Not available.
METAR KFFO 021258Z 29003KT 10SM OVC200 M09/M11 A3048 RMK AO2A SLP337 T10891115

More Conditions Fewer Conditions

10-Day Weather Forecast

Almanac

Astronomy

Mar. 02, 2015 Rise Set
Actual Time
Civil Twilight
Nautical Twilight
Astronomical Twilight
Moon
Length of Visible Light
Length of Day
Tomorrow will be .
, % of the Moon is Illuminated

Today's Extremes

State Highs State Lows

Community

WunderPhotos

Upload Photos

1,801,784 photos uploaded!

WunderBlogs® & News

Nearby

Air Quality

  Air Quality AQ Index Pollutant
Not available.

Snow Depth

Station Depth Elevation

Earthquake Activity

City Distance Mag. Time & Date
Minimum magnitude displayed is 2.5.

Coastal Water Temperatures

Place Temperature

Nearby Weather Stations

Special Statement
Statement as of 3:56 AM EST on March 02, 2015

... Icy roads likely this morning...

With temperatures below freezing any moisture on roadways and
sidewalks will freeze leading to icy conditions on untreated
surfaces. Please use extra caution if traveling this morning and
allow plenty of room between yourself and the car in front of you.